Time;durP1;ratioP1;P1;durP2;ratioP2;P2;SDS_P1;SDS_P2;PMS_P1;PMS_P2;Temp;Humidity;BMP_temperature;BMP_pressure;BME280_temperature;BME280_humidity;BME280_pressure;Samples;Min_cycle;Max_cycle;Signal;HPM_P1;HPM_P2
2021/01/24 00:02:02;;;;;;;1.60;0.30;;;5.10;99.90;;;;;;5048056;28;20377;-75
2021/01/24 00:04:29;;;;;;;0.60;0.50;;;5.90;99.90;;;;;;5049891;28;20439;-77
2021/01/24 00:06:54;;;;;;;0.50;0.40;;;5.40;99.90;;;;;;5049461;28;20469;-78
2021/01/24 00:09:20;;;;;;;0.50;0.40;;;4.20;99.90;;;;;;5049973;28;20461;-77
2021/01/24 00:11:46;;;;;;;0.60;0.40;;;3.80;99.90;;;;;;5050247;28;20428;-76
2021/01/24 00:14:11;;;;;;;1.80;0.67;;;5.30;99.90;;;;;;5049708;28;20381;-78
2021/01/24 00:16:37;;;;;;;1.20;0.50;;;5.90;99.90;;;;;;5050166;28;20405;-76
2021/01/24 00:19:03;;;;;;;0.80;0.47;;;4.30;99.90;;;;;;5049085;28;20452;-77
2021/01/24 00:21:28;;;;;;;1.20;0.50;;;6.50;99.90;;;;;;5050127;28;20856;-76
2021/01/24 00:23:54;;;;;;;1.20;0.55;;;4.20;99.90;;;;;;5049653;28;20377;-77
2021/01/24 00:26:19;;;;;;;0.70;0.70;;;4.60;99.90;;;;;;5049694;28;20454;-77
2021/01/24 00:28:45;;;;;;;1.60;0.60;;;4.40;99.90;;;;;;5050160;28;20461;-76
2021/01/24 00:31:11;;;;;;;1.97;0.70;;;5.10;99.90;;;;;;5049031;28;20386;-76
2021/01/24 00:33:36;;;;;;;2.03;0.70;;;4.90;99.90;;;;;;5050367;28;20377;-77
2021/01/24 00:36:02;;;;;;;1.17;0.70;;;4.20;99.90;;;;;;5047741;28;20393;-76
2021/01/24 00:38:28;;;;;;;0.60;0.60;;;3.90;99.90;;;;;;5050090;28;20834;-76
2021/01/24 00:40:54;;;;;;;0.60;0.50;;;4.20;99.90;;;;;;5049965;28;20374;-78
2021/01/24 00:43:19;;;;;;;1.45;0.77;;;4.10;99.90;;;;;;5049108;28;20389;-77
2021/01/24 00:45:48;;;;;;;1.00;0.70;;;5.60;99.90;;;;;;5049950;28;20413;-77
2021/01/24 00:48:14;;;;;;;0.60;0.60;;;5.60;99.90;;;;;;5049012;28;20400;-76
2021/01/24 00:50:40;;;;;;;0.70;0.50;;;4.10;99.90;;;;;;5049814;28;20739;-76
2021/01/24 00:53:05;;;;;;;0.87;0.70;;;4.50;99.90;;;;;;5049329;28;20541;-76
2021/01/24 00:55:31;;;;;;;1.47;0.80;;;4.10;99.90;;;;;;5049731;28;20378;-77
2021/01/24 00:57:56;;;;;;;0.60;0.60;;;5.00;99.90;;;;;;5048673;28;20533;-78
2021/01/24 01:00:22;;;;;;;0.50;0.50;;;3.90;99.90;;;;;;5049394;28;20481;-76
2021/01/24 01:02:48;;;;;;;1.00;0.70;;;4.00;99.90;;;;;;5049507;28;20377;-77
2021/01/24 01:05:14;;;;;;;0.85;0.57;;;4.10;99.90;;;;;;5049080;28;20417;-77
2021/01/24 01:07:40;;;;;;;0.90;0.60;;;4.10;99.90;;;;;;5049728;28;20409;-76
2021/01/24 01:10:06;;;;;;;0.70;0.70;;;4.90;99.90;;;;;;5047408;28;20839;-77
2021/01/24 01:12:31;;;;;;;0.70;0.60;;;3.70;99.90;;;;;;5049933;28;20669;-77
2021/01/24 01:14:57;;;;;;;0.80;0.60;;;4.90;99.90;;;;;;5048954;28;20382;-78
2021/01/24 01:17:23;;;;;;;0.90;0.67;;;4.20;99.90;;;;;;5049418;28;20869;-77
2021/01/24 01:19:48;;;;;;;0.50;0.50;;;3.70;99.90;;;;;;5049444;28;20392;-77
2021/01/24 01:22:14;;;;;;;0.90;0.80;;;5.70;99.90;;;;;;5049154;28;20390;-77
2021/01/24 01:24:40;;;;;;;0.68;0.50;;;4.20;99.90;;;;;;5052753;28;20385;-78
2021/01/24 01:27:05;;;;;;;0.70;0.60;;;4.40;99.90;;;;;;5052287;28;20400;-78
2021/01/24 01:29:31;;;;;;;0.80;0.60;;;5.10;99.90;;;;;;5052703;28;20378;-78
2021/01/24 01:31:56;;;;;;;0.80;0.60;;;4.40;99.90;;;;;;5052640;28;20385;-79
2021/01/24 01:34:22;;;;;;;0.80;0.60;;;3.30;99.90;;;;;;5051754;28;20424;-78
2021/01/24 01:36:48;;;;;;;0.73;0.73;;;3.30;99.90;;;;;;5053212;28;20409;-78
2021/01/24 01:39:14;;;;;;;1.00;0.60;;;3.10;99.90;;;;;;5052485;28;20400;-79
2021/01/24 01:41:39;;;;;;;0.93;0.70;;;3.30;99.90;;;;;;5053179;28;20526;-78
2021/01/24 01:44:05;;;;;;;1.30;0.70;;;4.20;99.90;;;;;;5052137;28;20834;-79
2021/01/24 01:46:31;;;;;;;0.77;0.60;;;3.60;99.90;;;;;;5053443;28;20912;-78
2021/01/24 01:48:57;;;;;;;0.90;0.70;;;3.10;99.90;;;;;;5052869;28;20388;-80
2021/01/24 01:51:25;;;;;;;1.00;0.75;;;3.10;99.90;;;;;;5052678;28;20382;-77
2021/01/24 01:53:52;;;;;;;0.90;0.90;;;3.00;99.90;;;;;;5053403;28;20377;-78
2021/01/24 01:56:18;;;;;;;0.60;0.50;;;2.80;99.90;;;;;;5052149;28;20688;-77
2021/01/24 01:58:44;;;;;;;0.80;0.77;;;4.60;99.90;;;;;;5052828;28;20409;-77
2021/01/24 02:01:39;;;;;;;1.35;0.77;;;2.90;99.90;;;;;;5052034;28;20424;-77
2021/01/24 02:04:36;;;;;;;0.70;0.70;;;3.50;99.90;;;;;;5052126;28;20773;-78
2021/01/24 02:07:23;;;;;;;2.70;0.90;;;2.90;99.90;;;;;;5052366;28;20389;-80
2021/01/24 02:09:58;;;;;;;1.13;0.95;;;5.00;99.90;;;;;;5052949;28;20468;-78
2021/01/24 02:12:38;;;;;;;1.10;1.00;;;5.30;99.90;;;;;;5052532;28;20377;-78
2021/01/24 02:15:08;;;;;;;1.40;0.90;;;2.90;99.90;;;;;;5052298;28;20377;-77
2021/01/24 02:17:37;;;;;;;1.10;1.00;;;3.00;99.90;;;;;;5051450;28;20766;-78
2021/01/24 02:20:37;;;;;;;1.40;1.10;;;3.00;99.90;;;;;;5051850;28;20381;-78
2021/01/24 02:23:03;;;;;;;1.20;0.90;;;2.70;99.90;;;;;;5052539;28;20393;-79
2021/01/24 02:26:04;;;;;;;1.37;1.00;;;3.10;99.90;;;;;;5052484;28;20435;-77
2021/01/24 02:28:49;;;;;;;1.00;0.90;;;3.10;99.90;;;;;;5053233;28;20386;-78
2021/01/24 02:31:15;;;;;;;1.10;0.90;;;2.90;99.90;;;;;;5051464;28;20385;-78
2021/01/24 02:33:42;;;;;;;0.80;0.80;;;3.70;99.90;;;;;;5051785;28;20394;-77
2021/01/24 02:36:10;;;;;;;1.02;0.85;;;5.20;99.90;;;;;;5050567;28;20382;-78
2021/01/24 02:38:37;;;;;;;1.33;0.90;;;2.60;99.90;;;;;;5052039;28;20730;-78
2021/01/24 02:41:06;;;;;;;1.65;0.85;;;3.30;99.90;;;;;;5049917;28;20392;-80
2021/01/24 02:43:32;;;;;;;1.00;0.80;;;3.00;99.90;;;;;;5051550;28;20385;-78
2021/01/24 02:45:59;;;;;;;0.73;0.73;;;3.00;99.90;;;;;;5051817;28;20378;-79
2021/01/24 02:48:24;;;;;;;1.30;0.80;;;2.90;99.90;;;;;;5051033;28;20440;-79
2021/01/24 02:50:50;;;;;;;2.00;0.70;;;3.50;99.90;;;;;;5052019;28;20389;-77
2021/01/24 02:53:16;;;;;;;0.85;0.63;;;3.20;99.90;;;;;;5051276;28;20385;-79
2021/01/24 02:55:43;;;;;;;0.70;0.60;;;5.60;99.90;;;;;;5051478;28;20377;-78
2021/01/24 02:58:09;;;;;;;0.70;0.60;;;5.10;99.90;;;;;;5048943;28;20433;-78
2021/01/24 03:00:34;;;;;;;0.70;0.53;;;3.90;99.90;;;;;;5051474;28;20380;-78
2021/01/24 03:03:00;;;;;;;1.27;0.77;;;2.60;99.90;;;;;;5051393;28;20382;-77
2021/01/24 03:05:26;;;;;;;0.70;0.70;;;3.10;99.90;;;;;;5050948;28;20397;-78
2021/01/24 03:07:53;;;;;;;0.70;0.60;;;3.10;99.90;;;;;;5051005;28;20385;-77
2021/01/24 03:10:19;;;;;;;0.85;0.60;;;2.80;99.90;;;;;;5050692;28;20504;-77
2021/01/24 03:12:57;;;;;;;0.70;0.50;;;4.50;99.90;;;;;;5051799;28;20382;-77
2021/01/24 03:15:24;;;;;;;0.98;0.65;;;3.00;99.90;;;;;;5051054;28;20949;-79
2021/01/24 03:17:50;;;;;;;0.68;0.50;;;2.30;99.90;;;;;;5050238;28;20418;-78
2021/01/24 03:20:17;;;;;;;0.70;0.70;;;3.40;99.90;;;;;;5050372;28;20523;-79
2021/01/24 03:22:46;;;;;;;0.55;0.50;;;2.10;99.90;;;;;;5051649;28;20703;-78
2021/01/24 03:25:14;;;;;;;0.70;0.70;;;3.10;99.90;;;;;;5050603;28;20377;-80
2021/01/24 03:27:40;;;;;;;0.90;0.50;;;2.50;99.90;;;;;;5051394;28;20482;-78
2021/01/24 03:30:06;;;;;;;0.57;0.57;;;2.30;99.90;;;;;;5050305;28;20854;-79
2021/01/24 03:32:32;;;;;;;0.70;0.57;;;2.60;99.90;;;;;;5051923;28;20472;-78
2021/01/24 03:34:58;;;;;;;1.00;0.70;;;4.50;99.90;;;;;;5051576;28;20487;-79
2021/01/24 03:37:23;;;;;;;0.88;0.70;;;4.10;99.90;;;;;;5050514;28;20424;-79
2021/01/24 03:39:49;;;;;;;0.75;0.70;;;3.70;99.90;;;;;;5051331;28;20388;-77
2021/01/24 03:42:14;;;;;;;1.05;0.73;;;3.60;99.90;;;;;;5050274;28;20377;-77
2021/01/24 03:44:40;;;;;;;1.00;0.50;;;5.10;99.90;;;;;;5051320;28;20369;-78
2021/01/24 03:47:06;;;;;;;1.10;0.80;;;4.20;99.90;;;;;;5050184;28;20539;-80
2021/01/24 03:49:32;;;;;;;1.57;0.63;;;;;;;;;;5050702;28;20390;-78
2021/01/24 03:51:57;;;;;;;1.20;0.80;;;2.40;99.90;;;;;;5050952;28;20461;-78
2021/01/24 03:54:23;;;;;;;0.60;0.60;;;3.40;99.90;;;;;;5050192;28;20508;-78
2021/01/24 03:56:48;;;;;;;0.95;0.70;;;2.60;99.90;;;;;;5050973;28;20920;-78
2021/01/24 03:59:14;;;;;;;0.60;0.57;;;3.60;99.90;;;;;;5049818;28;20409;-78
2021/01/24 04:01:40;;;;;;;0.70;0.63;;;3.00;99.90;;;;;;5049226;28;20699;-77
2021/01/24 04:04:06;;;;;;;0.82;0.65;;;2.40;99.90;;;;;;5050074;28;20381;-79
2021/01/24 04:06:31;;;;;;;1.60;0.90;;;2.30;99.90;;;;;;5049611;28;20378;-78
2021/01/24 04:08:57;;;;;;;1.00;0.50;;;2.40;99.90;;;;;;5050331;28;20382;-77
2021/01/24 04:11:22;;;;;;;0.70;0.60;;;3.80;99.90;;;;;;5049446;28;20384;-77
2021/01/24 04:13:48;;;;;;;0.93;0.80;;;2.60;99.90;;;;;;5050470;28;20386;-77
2021/01/24 04:16:14;;;;;;;0.77;0.50;;;2.40;99.90;;;;;;5048394;28;20392;-76
2021/01/24 04:18:39;;;;;;;1.00;0.80;;;2.10;99.90;;;;;;5050364;28;20420;-77
2021/01/24 04:21:05;;;;;;;1.02;0.80;;;2.90;99.90;;;;;;5049886;28;20854;-77
2021/01/24 04:23:31;;;;;;;0.85;0.80;;;2.40;99.90;;;;;;5049296;28;20446;-77
2021/01/24 04:25:57;;;;;;;0.90;0.80;;;3.10;99.90;;;;;;5048441;28;20385;-77
2021/01/24 04:28:23;;;;;;;1.20;0.70;;;3.20;99.90;;;;;;5049422;28;20392;-78
2021/01/24 04:30:49;;;;;;;0.70;0.70;;;4.70;99.90;;;;;;5050114;28;20782;-77
2021/01/24 04:33:14;;;;;;;1.58;0.90;;;3.10;99.90;;;;;;5047954;28;20381;-78
2021/01/24 04:35:40;;;;;;;0.77;0.60;;;4.60;99.90;;;;;;5049810;28;20377;-78
2021/01/24 04:38:06;;;;;;;0.95;0.70;;;4.70;99.90;;;;;;5049627;28;20425;-77
2021/01/24 04:40:31;;;;;;;1.00;0.70;;;4.70;99.90;;;;;;5049320;28;20374;-77
2021/01/24 04:42:57;;;;;;;1.20;0.97;;;2.60;99.90;;;;;;5050089;28;20431;-78
2021/01/24 04:45:23;;;;;;;0.80;0.80;;;4.10;99.90;;;;;;5049373;28;20389;-77
2021/01/24 04:47:50;;;;;;;1.50;0.90;;;3.90;99.90;;;;;;5045804;28;20399;-76
2021/01/24 04:50:16;;;;;;;1.10;1.00;;;3.70;99.90;;;;;;5029323;28;20383;-78
2021/01/24 04:52:42;;;;;;;0.77;0.60;;;2.10;99.90;;;;;;5030214;28;20418;-77
2021/01/24 04:55:08;;;;;;;0.80;0.80;;;3.00;99.90;;;;;;5029979;28;20419;-77
2021/01/24 04:57:35;;;;;;;2.17;1.00;;;2.20;99.90;;;;;;5030303;28;20446;-76
2021/01/24 05:00:01;;;;;;;0.73;0.73;;;4.80;99.90;;;;;;5034422;28;20407;-77
2021/01/24 05:02:28;;;;;;;1.02;0.73;;;2.30;99.90;;;;;;5033064;28;20769;-77
2021/01/24 05:04:54;;;;;;;0.80;0.60;;;2.40;99.90;;;;;;5032485;28;20458;-78
2021/01/24 05:07:19;;;;;;;1.60;0.70;;;2.50;99.90;;;;;;5051400;28;20401;-78
2021/01/24 05:09:48;;;;;;;1.60;0.90;;;4.10;99.90;;;;;;5055565;28;20377;-78
2021/01/24 05:12:15;;;;;;;0.80;0.77;;;3.70;99.90;;;;;;5050663;28;20470;-78
2021/01/24 05:14:41;;;;;;;1.45;0.90;;;2.00;99.90;;;;;;5051589;28;20422;-78
2021/01/24 05:17:07;;;;;;;1.20;0.80;;;2.30;99.90;;;;;;5065584;28;20515;-77
2021/01/24 05:19:34;;;;;;;1.55;1.08;;;3.20;99.90;;;;;;5050969;28;20382;-76
2021/01/24 05:22:03;;;;;;;1.30;1.00;;;3.90;99.90;;;;;;5051732;28;20917;-78
2021/01/24 05:24:29;;;;;;;1.60;1.30;;;2.50;99.90;;;;;;5052795;28;20403;-78
2021/01/24 05:26:55;;;;;;;0.80;0.70;;;3.50;99.90;;;;;;5052239;28;20491;-76
2021/01/24 05:29:23;;;;;;;1.20;0.90;;;3.70;99.90;;;;;;5051516;28;20389;-78
2021/01/24 05:31:51;;;;;;;1.10;1.00;;;3.10;99.90;;;;;;5052416;28;20467;-76
2021/01/24 05:34:17;;;;;;;0.93;0.90;;;;;;;;;;5051166;28;20407;-77
2021/01/24 05:36:46;;;;;;;1.00;0.90;;;2.30;98.60;;;;;;5047716;28;20774;-77
2021/01/24 05:39:13;;;;;;;1.00;0.90;;;2.20;99.90;;;;;;5050488;28;20507;-79
2021/01/24 05:41:41;;;;;;;1.13;1.02;;;3.70;99.90;;;;;;5051372;28;20408;-78
2021/01/24 05:44:19;;;;;;;1.20;1.10;;;1.90;99.90;;;;;;5051895;28;20384;-78
2021/01/24 05:46:45;;;;;;;1.50;1.10;;;2.90;99.90;;;;;;5047559;28;20393;-78
2021/01/24 05:49:20;;;;;;;1.70;1.00;;;2.10;99.90;;;;;;5051745;28;20393;-78
2021/01/24 05:52:08;;;;;;;1.30;0.90;;;4.00;99.90;;;;;;5067459;28;20821;-77
2021/01/24 05:54:44;;;;;;;1.40;1.05;;;1.80;99.90;;;;;;5050202;28;20399;-76
2021/01/24 05:57:14;;;;;;;3.00;1.30;;;3.40;99.90;;;;;;5081486;28;20423;-77
2021/01/24 05:59:50;;;;;;;2.03;0.90;;;2.60;99.90;;;;;;5051784;28;20461;-77
2021/01/24 06:02:18;;;;;;;1.05;0.90;;;3.50;99.90;;;;;;5050935;28;20448;-78
2021/01/24 06:04:44;;;;;;;1.20;1.10;;;3.60;99.90;;;;;;5051302;28;20387;-78
2021/01/24 06:07:10;;;;;;;1.10;0.80;;;1.90;99.90;;;;;;5050094;28;20421;-77
2021/01/24 06:09:36;;;;;;;1.00;0.90;;;3.50;99.90;;;;;;5050079;28;20398;-78
2021/01/24 06:12:03;;;;;;;1.10;0.80;;;3.00;99.90;;;;;;5052530;28;20380;-77
2021/01/24 06:14:33;;;;;;;0.98;0.90;;;2.10;99.90;;;;;;5085658;28;20823;-77
2021/01/24 06:17:03;;;;;;;1.20;1.00;;;1.90;99.90;;;;;;5049968;28;20445;-79
2021/01/24 06:19:39;;;;;;;2.00;0.73;;;2.00;99.90;;;;;;5064810;28;20389;-76
2021/01/24 06:22:07;;;;;;;1.85;0.90;;;3.40;99.90;;;;;;5055888;28;20392;-76
2021/01/24 06:24:40;;;;;;;1.00;0.90;;;2.10;99.90;;;;;;5053113;28;20391;-77
2021/01/24 06:27:09;;;;;;;1.20;0.90;;;2.70;99.90;;;;;;5050619;28;20436;-77
2021/01/24 06:29:36;;;;;;;1.00;0.80;;;1.90;99.90;;;;;;5049938;28;20374;-75
2021/01/24 06:32:02;;;;;;;1.30;1.00;;;2.00;99.90;;;;;;5049747;28;20459;-78
2021/01/24 06:34:35;;;;;;;0.80;0.70;;;2.20;99.90;;;;;;5049787;28;20476;-77
2021/01/24 06:37:03;;;;;;;1.10;1.00;;;2.00;99.90;;;;;;5041857;28;20443;-76
2021/01/24 06:39:48;;;;;;;1.90;0.90;;;2.50;99.90;;;;;;5046222;28;20391;-78
2021/01/24 06:42:53;;;;;;;1.55;1.10;;;2.20;99.90;;;;;;5050053;28;20442;-78
2021/01/24 06:45:22;;;;;;;1.42;0.98;;;2.10;99.70;;;;;;5045573;28;20381;-77
2021/01/24 06:47:48;;;;;;;0.90;0.70;;;3.00;99.90;;;;;;5049115;28;20388;-76
2021/01/24 06:50:33;;;;;;;1.00;0.90;;;3.10;99.90;;;;;;5048855;28;20445;-77
2021/01/24 06:53:20;;;;;;;0.80;0.80;;;2.80;99.90;;;;;;5051810;28;20460;-77
2021/01/24 06:56:08;;;;;;;0.70;0.70;;;2.00;99.90;;;;;;5045952;28;20385;-77
2021/01/24 06:58:48;;;;;;;1.20;0.90;;;2.20;99.90;;;;;;5047498;28;20421;-76
2021/01/24 07:01:28;;;;;;;0.77;0.50;;;2.40;99.90;;;;;;5052090;28;20861;-77
2021/01/24 07:04:30;;;;;;;1.40;1.10;;;2.30;99.90;;;;;;5049162;28;20492;-77
2021/01/24 07:07:10;;;;;;;1.25;0.88;;;2.20;99.90;;;;;;5045735;28;20407;-78
2021/01/24 07:09:43;;;;;;;0.70;0.70;;;2.20;99.90;;;;;;5046336;28;20388;-77
2021/01/24 07:12:10;;;;;;;1.10;1.00;;;1.80;99.90;;;;;;5049877;28;20393;-78
2021/01/24 07:14:38;;;;;;;1.15;0.80;;;2.00;99.90;;;;;;5048103;28;20384;-76
2021/01/24 07:17:07;;;;;;;1.40;0.80;;;2.30;99.90;;;;;;5045791;28;20582;-76
2021/01/24 07:19:50;;;;;;;0.63;0.63;;;2.20;99.30;;;;;;5048623;28;20397;-76
2021/01/24 07:22:22;;;;;;;4.53;1.00;;;2.40;99.90;;;;;;5067520;28;20412;-77
2021/01/24 07:24:49;;;;;;;1.20;0.70;;;2.40;99.90;;;;;;5050849;28;20384;-77
2021/01/24 07:27:20;;;;;;;1.70;0.83;;;2.60;99.90;;;;;;5054377;28;20412;-76
2021/01/24 07:29:46;;;;;;;1.05;0.95;;;2.30;99.70;;;;;;5071222;28;20384;-76
2021/01/24 07:32:16;;;;;;;1.50;0.90;;;2.30;99.90;;;;;;5070561;28;20733;-76
2021/01/24 07:34:44;;;;;;;1.20;1.10;;;2.40;99.90;;;;;;5069804;28;20391;-77
2021/01/24 07:37:10;;;;;;;1.00;0.80;;;3.70;99.90;;;;;;5070207;28;20403;-78
2021/01/24 07:39:36;;;;;;;1.70;0.80;;;2.40;99.90;;;;;;5069102;28;20383;-78
2021/01/24 07:42:03;;;;;;;2.38;1.00;;;2.90;99.90;;;;;;5070085;28;20411;-76
2021/01/24 07:44:29;;;;;;;1.00;0.90;;;1.70;99.90;;;;;;5069121;28;20391;-76
2021/01/24 07:46:55;;;;;;;1.25;0.70;;;2.20;99.90;;;;;;5068239;28;20399;-76
2021/01/24 07:49:21;;;;;;;2.50;0.90;;;2.20;99.90;;;;;;5050762;28;20401;-77
2021/01/24 07:51:47;;;;;;;1.20;0.90;;;4.30;99.90;;;;;;5049941;28;20385;-76
2021/01/24 07:54:15;;;;;;;1.40;1.00;;;2.90;99.90;;;;;;5049972;28;20417;-77
2021/01/24 07:56:42;;;;;;;1.05;0.77;;;2.40;99.90;;;;;;5048946;28;20409;-76
2021/01/24 07:59:08;;;;;;;1.38;0.73;;;2.50;99.90;;;;;;5049727;28;20405;-76
2021/01/24 08:01:37;;;;;;;0.80;0.77;;;4.30;99.90;;;;;;5048163;28;20420;-77
2021/01/24 08:04:04;;;;;;;1.23;0.80;;;2.00;99.90;;;;;;5050133;28;20377;-76
2021/01/24 08:06:36;;;;;;;1.00;0.80;;;2.10;99.90;;;;;;5048796;28;20401;-76
2021/01/24 08:09:07;;;;;;;2.20;1.00;;;2.60;99.90;;;;;;5050541;28;20439;-76
2021/01/24 08:11:34;;;;;;;1.70;1.10;;;4.80;99.90;;;;;;5049933;28;20446;-75
2021/01/24 08:13:59;;;;;;;1.40;0.90;;;3.30;99.90;;;;;;5050731;28;20486;-76
2021/01/24 08:16:34;;;;;;;2.47;1.30;;;3.80;99.90;;;;;;5049866;28;20451;-77
2021/01/24 08:19:03;;;;;;;0.90;0.90;;;2.20;99.90;;;;;;5049444;28;20409;-77
2021/01/24 08:21:29;;;;;;;0.90;0.90;;;2.60;99.90;;;;;;5049788;28;20397;-77
2021/01/24 08:23:54;;;;;;;1.58;1.05;;;2.50;99.90;;;;;;5050556;28;20382;-77
2021/01/24 08:26:21;;;;;;;1.17;1.08;;;3.10;99.90;;;;;;5050061;28;20443;-77
2021/01/24 08:28:48;;;;;;;1.90;0.80;;;2.90;99.90;;;;;;5049567;28;20429;-77
2021/01/24 08:31:21;;;;;;;1.80;0.90;;;4.20;99.90;;;;;;5049837;28;20801;-77
2021/01/24 08:33:54;;;;;;;1.00;0.82;;;2.30;99.90;;;;;;5053201;28;20385;-76
2021/01/24 08:36:27;;;;;;;1.52;1.20;;;2.70;99.90;;;;;;5054779;28;20466;-76
2021/01/24 08:38:57;;;;;;;1.70;1.50;;;2.60;99.90;;;;;;5054549;28;20719;-78
2021/01/24 08:41:36;;;;;;;1.95;1.38;;;4.30;99.90;;;;;;5053732;28;20400;-79
2021/01/24 08:44:10;;;;;;;1.20;1.10;;;2.60;99.90;;;;;;5052078;28;20393;-76
2021/01/24 08:46:45;;;;;;;1.33;1.23;;;4.70;99.90;;;;;;5053073;28;20471;-77
2021/01/24 08:49:30;;;;;;;1.15;0.93;;;2.90;97.90;;;;;;5051969;28;20778;-76
2021/01/24 08:51:58;;;;;;;1.50;1.33;;;2.80;99.90;;;;;;5054500;28;20467;-77
2021/01/24 08:54:30;;;;;;;1.00;0.90;;;2.80;99.90;;;;;;5053627;28;20460;-77
2021/01/24 08:57:30;;;;;;;1.30;1.00;;;2.70;99.70;;;;;;5053725;28;20943;-76
2021/01/24 09:00:08;;;;;;;1.52;1.13;;;2.80;99.90;;;;;;5048633;28;20409;-78
2021/01/24 09:02:35;;;;;;;1.60;1.30;;;2.80;99.90;;;;;;5053023;28;20385;-76
2021/01/24 09:05:03;;;;;;;1.20;1.10;;;3.10;99.10;;;;;;5050372;28;20383;-76
2021/01/24 09:07:48;;;;;;;1.70;1.40;;;2.80;99.90;;;;;;5053047;28;20484;-77
2021/01/24 09:10:21;;;;;;;2.20;1.20;;;2.90;98.90;;;;;;5056854;28;20396;-78
2021/01/24 09:12:54;;;;;;;1.23;1.10;;;2.50;97.60;;;;;;5057827;28;20435;-78
2021/01/24 09:15:22;;;;;;;1.10;1.00;;;3.10;99.90;;;;;;5055449;28;20370;-77
2021/01/24 09:17:49;;;;;;;1.88;1.00;;;2.80;99.90;;;;;;5054710;28;20583;-78
2021/01/24 09:20:23;;;;;;;1.33;1.00;;;3.90;99.90;;;;;;5052802;28;20397;-79
2021/01/24 09:22:52;;;;;;;1.50;1.30;;;3.30;99.70;;;;;;5053257;28;20977;-77
2021/01/24 09:25:18;;;;;;;1.20;1.10;;;2.80;97.30;;;;;;5050689;28;20951;-77
2021/01/24 09:27:44;;;;;;;1.45;1.20;;;2.80;99.20;;;;;;5053108;28;20393;-76
2021/01/24 09:30:12;;;;;;;1.60;1.40;;;5.10;99.90;;;;;;5052107;28;20393;-76
2021/01/24 09:32:38;;;;;;;2.90;1.50;;;3.40;99.60;;;;;;5040277;28;20389;-78
2021/01/24 09:35:07;;;;;;;1.88;1.40;;;3.20;99.90;;;;;;5053674;28;20404;-77
2021/01/24 09:37:33;;;;;;;1.10;1.00;;;2.60;99.40;;;;;;5048708;28;20483;-78
2021/01/24 09:39:59;;;;;;;1.27;1.10;;;4.80;99.90;;;;;;5048093;28;20459;-78
2021/01/24 09:42:25;;;;;;;1.67;1.10;;;2.70;99.90;;;;;;5050089;28;20492;-78
2021/01/24 09:44:50;;;;;;;1.35;1.20;;;4.60;99.90;;;;;;5066257;28;20457;-77
2021/01/24 09:47:17;;;;;;;1.92;1.30;;;3.80;99.90;;;;;;5051377;28;20390;-78
2021/01/24 09:49:42;;;;;;;2.00;1.17;;;5.40;99.90;;;;;;5051295;28;20479;-79
2021/01/24 09:52:08;;;;;;;1.75;1.40;;;3.00;99.90;;;;;;5050449;28;20385;-77
2021/01/24 09:54:34;;;;;;;2.10;1.30;;;3.40;99.90;;;;;;5050170;28;20477;-77
2021/01/24 09:56:59;;;;;;;1.40;1.23;;;3.60;99.90;;;;;;5053005;28;20426;-77
2021/01/24 09:59:25;;;;;;;1.50;1.10;;;4.10;99.90;;;;;;5053222;28;20504;-77
2021/01/24 10:01:51;;;;;;;2.35;1.70;;;3.60;99.90;;;;;;5047306;28;20389;-77
2021/01/24 10:04:16;;;;;;;1.63;1.48;;;3.40;99.90;;;;;;5051809;28;20431;-78
2021/01/24 10:06:42;;;;;;;2.40;1.60;;;5.00;99.90;;;;;;5051730;28;20510;-77
2021/01/24 10:09:09;;;;;;;2.00;1.60;;;3.40;99.90;;;;;;5053135;28;20388;-76
2021/01/24 10:11:35;;;;;;;1.30;1.17;;;3.20;99.90;;;;;;5052320;28;20386;-78
2021/01/24 10:14:01;;;;;;;1.60;1.30;;;3.40;99.90;;;;;;5051780;28;20445;-77
2021/01/24 10:16:28;;;;;;;1.80;1.20;;;4.30;99.90;;;;;;5054183;28;20405;-77
2021/01/24 10:18:54;;;;;;;6.43;1.20;;;3.40;99.90;;;;;;5051572;28;20458;-77
2021/01/24 10:21:19;;;;;;;1.87;1.50;;;4.00;98.60;;;;;;5052395;28;20386;-76
2021/01/24 10:23:45;;;;;;;1.10;1.00;;;5.20;99.90;;;;;;5051516;28;20423;-75
2021/01/24 10:26:11;;;;;;;1.30;1.20;;;3.50;99.90;;;;;;5049592;28;20402;-76
2021/01/24 10:28:36;;;;;;;2.00;1.20;;;3.60;97.70;;;;;;5051634;28;20385;-76
2021/01/24 10:31:02;;;;;;;2.88;0.98;;;3.60;99.90;;;;;;5051674;28;20378;-75
2021/01/24 10:33:28;;;;;;;1.10;1.00;;;3.70;99.90;;;;;;5051073;28;20729;-76
2021/01/24 10:35:54;;;;;;;2.10;1.00;;;3.80;96.50;;;;;;5051310;28;20567;-76
2021/01/24 10:38:21;;;;;;;2.15;0.63;;;4.30;96.40;;;;;;5051604;28;20425;-76
2021/01/24 10:40:47;;;;;;;0.82;0.80;;;4.90;98.00;;;;;;5051049;28;20385;-76
2021/01/24 10:43:13;;;;;;;1.65;0.80;;;4.50;94.30;;;;;;5052019;28;20456;-76
2021/01/24 10:45:39;;;;;;;1.10;0.80;;;4.70;94.10;;;;;;5042945;28;20493;-78
2021/01/24 10:48:07;;;;;;;1.30;0.90;;;4.00;98.80;;;;;;5044566;28;20476;-77
2021/01/24 10:50:37;;;;;;;1.50;0.90;;;3.50;93.40;;;;;;5046182;28;20405;-77
2021/01/24 10:53:07;;;;;;;1.10;0.90;;;3.50;93.90;;;;;;5043798;28;20390;-78
2021/01/24 10:55:35;;;;;;;1.60;1.20;;;3.70;94.30;;;;;;5047339;28;20397;-78
2021/01/24 10:58:01;;;;;;;1.30;0.95;;;2.20;97.60;;;;;;5045761;28;20539;-78
2021/01/24 11:00:27;;;;;;;1.15;1.05;;;3.50;97.90;;;;;;5050530;28;21441;-77
2021/01/24 11:02:53;;;;;;;0.85;0.70;;;3.30;97.00;;;;;;5048027;28;20375;-76
2021/01/24 11:05:19;;;;;;;0.93;0.70;;;3.80;98.10;;;;;;5051615;28;20391;-76
2021/01/24 11:07:44;;;;;;;0.90;0.75;;;3.80;93.90;;;;;;5036577;28;20427;-76
2021/01/24 11:10:11;;;;;;;1.92;1.00;;;3.90;92.60;;;;;;5043684;28;20415;-76
2021/01/24 11:12:37;;;;;;;2.10;1.20;;;3.80;96.70;;;;;;5032540;28;20386;-78
2021/01/24 11:15:04;;;;;;;1.00;0.60;;;4.30;93.20;;;;;;5036464;28;20461;-75
2021/01/24 11:17:30;;;;;;;1.33;1.20;;;3.70;90.60;;;;;;5053292;28;20420;-76
2021/01/24 11:19:56;;;;;;;0.70;0.70;;;3.00;90.60;;;;;;5040258;28;20503;-78
2021/01/24 11:22:22;;;;;;;0.98;0.88;;;3.70;93.30;;;;;;5038341;28;20388;-77
2021/01/24 11:24:48;;;;;;;2.17;1.30;;;3.70;92.40;;;;;;5040095;28;20409;-79
2021/01/24 11:27:15;;;;;;;2.50;1.30;;;4.50;91.60;;;;;;5037040;28;20421;-74
2021/01/24 11:29:41;;;;;;;1.30;1.00;;;4.90;88.90;;;;;;5039734;28;20397;-76
2021/01/24 11:32:08;;;;;;;1.48;0.90;;;5.50;88.60;;;;;;5037223;28;20609;-78
2021/01/24 11:34:36;;;;;;;0.95;0.80;;;5.10;88.80;;;;;;5042353;28;20460;-77
2021/01/24 11:37:03;;;;;;;1.80;1.02;;;4.70;93.00;;;;;;5036240;28;20403;-77
2021/01/24 11:39:28;;;;;;;0.90;0.80;;;4.70;86.30;;;;;;5038125;28;20396;-75
2021/01/24 11:41:54;;;;;;;1.70;0.98;;;4.90;85.70;;;;;;5038232;28;20389;-76
2021/01/24 11:44:20;;;;;;;1.20;0.70;;;4.60;90.70;;;;;;5039655;28;20389;-75
2021/01/24 11:46:46;;;;;;;2.00;0.90;;;4.90;84.60;;;;;;5037804;28;21993;-76
2021/01/24 11:49:11;;;;;;;1.80;0.88;;;6.40;90.30;;;;;;5041018;28;20392;-79
2021/01/24 11:51:37;;;;;;;1.50;0.82;;;4.70;92.20;;;;;;5034403;28;21660;-75
2021/01/24 11:54:04;;;;;;;1.50;0.90;;;4.30;90.70;;;;;;5038322;28;21207;-80
2021/01/24 11:56:30;;;;;;;0.87;0.70;;;5.10;88.40;;;;;;5040263;28;20400;-78
2021/01/24 11:58:56;;;;;;;1.55;0.80;;;4.70;84.40;;;;;;5035272;28;20409;-75
2021/01/24 12:01:21;;;;;;;2.23;0.83;;;5.90;85.30;;;;;;5036456;28;20378;-79
2021/01/24 12:03:47;;;;;;;1.57;0.80;;;7.20;85.90;;;;;;5037627;28;21446;-75
2021/01/24 12:06:13;;;;;;;1.87;0.93;;;6.40;91.40;;;;;;5034073;28;20384;-75
2021/01/24 12:08:39;;;;;;;1.10;0.80;;;6.70;83.90;;;;;;5038308;28;20395;-78
2021/01/24 12:11:05;;;;;;;1.30;0.70;;;5.20;82.00;;;;;;5039169;28;20389;-79
2021/01/24 12:13:31;;;;;;;1.17;1.05;;;5.60;87.60;;;;;;5037397;28;20395;-76
2021/01/24 12:15:57;;;;;;;1.50;0.70;;;6.60;87.50;;;;;;5034757;28;20383;-76
2021/01/24 12:18:23;;;;;;;1.70;0.70;;;7.40;78.00;;;;;;5040363;28;20522;-75
2021/01/24 12:20:49;;;;;;;1.37;0.73;;;8.30;76.90;;;;;;5035278;28;20436;-79
2021/01/24 12:23:15;;;;;;;1.65;1.00;;;7.00;72.00;;;;;;5035633;28;20475;-79
2021/01/24 12:25:40;;;;;;;2.05;0.93;;;7.80;70.20;;;;;;5037019;28;20417;-77
2021/01/24 12:28:06;;;;;;;2.70;0.90;;;9.20;75.60;;;;;;5037687;28;21132;-76
2021/01/24 12:30:32;;;;;;;1.63;1.00;;;9.40;67.70;;;;;;5038921;28;20387;-76
2021/01/24 12:32:58;;;;;;;2.90;0.80;;;7.50;72.60;;;;;;5034228;28;21243;-78
2021/01/24 12:35:23;;;;;;;1.20;0.90;;;7.70;70.40;;;;;;5032285;28;20471;-77
2021/01/24 12:37:53;;;;;;;1.40;0.90;;;8.50;65.20;;;;;;5031987;28;20928;-76
2021/01/24 12:40:19;;;;;;;0.90;0.80;;;7.80;60.40;;;;;;5038819;28;20420;-76
2021/01/24 12:42:45;;;;;;;2.70;0.88;;;7.60;63.00;;;;;;5038030;28;20424;-78
2021/01/24 12:45:12;;;;;;;1.55;1.10;;;7.60;71.60;;;;;;5045361;28;20428;-77
2021/01/24 12:47:38;;;;;;;1.00;0.80;;;8.00;72.50;;;;;;5046106;28;20388;-76
2021/01/24 12:50:06;;;;;;;1.20;1.02;;;9.50;66.00;;;;;;5046131;28;20384;-77
2021/01/24 12:52:33;;;;;;;2.40;1.10;;;8.30;72.50;;;;;;5061949;28;20635;-76
2021/01/24 12:54:58;;;;;;;2.35;1.40;;;8.70;72.60;;;;;;5044671;28;20386;-78
2021/01/24 12:57:24;;;;;;;1.97;1.30;;;7.60;77.90;;;;;;5044321;28;20763;-78
2021/01/24 12:59:50;;;;;;;1.63;1.40;;;7.00;71.50;;;;;;5044514;28;20409;-77
2021/01/24 13:02:16;;;;;;;1.20;1.10;;;6.20;74.20;;;;;;5043265;28;20389;-77
2021/01/24 13:04:41;;;;;;;1.40;1.20;;;5.80;88.20;;;;;;5043346;28;20374;-77